createdAt,value
2023-01-30T00:01:05.084Z,42.85
2023-01-30T00:06:01.494Z,33.33
2023-01-30T00:11:03.007Z,42.65
2023-01-30T00:15:59.641Z,40.17
2023-01-30T00:21:00.859Z,42.53
2023-01-30T00:25:57.591Z,42.03
2023-01-30T00:30:55.879Z,42.83
2023-01-30T00:35:54.096Z,44.70
2023-01-30T00:40:50.729Z,45.60
2023-01-30T00:46:07.061Z,45.22
2023-01-30T00:51:03.752Z,46.10
2023-01-30T00:56:00.317Z,40.97
2023-01-30T01:00:56.792Z,45.97
2023-01-30T01:05:53.174Z,43.47
2023-01-30T01:10:50.096Z,45.50
2023-01-30T01:15:46.474Z,44.80
2023-01-30T01:20:42.860Z,41.65
2023-01-30T01:25:39.282Z,41.00
2023-01-30T01:30:35.670Z,38.92
2023-01-30T01:35:32.099Z,36.13
2023-01-30T01:40:47.136Z,42.03
2023-01-30T01:45:45.378Z,39.22
2023-01-30T01:51:02.351Z,34.10
2023-01-30T01:56:01.598Z,40.22
2023-01-30T02:00:59.803Z,35.88
2023-01-30T02:06:00.922Z,36.67
2023-01-30T02:11:25.707Z,36.17
2023-01-30T02:16:22.090Z,39.15
2023-01-30T02:21:43.015Z,35.90
2023-01-30T02:27:03.946Z,37.47
2023-01-30T02:32:33.360Z,33.08
2023-01-30T02:37:57.918Z,35.33
2023-01-30T02:43:20.578Z,36.75
2023-01-30T02:48:34.922Z,34.10
2023-01-30T02:53:34.779Z,33.42
2023-01-30T02:58:38.319Z,33.80
2023-01-30T03:03:53.348Z,29.98
2023-01-30T03:09:06.256Z,32.97
2023-01-30T03:14:11.905Z,30.70
2023-01-30T03:19:13.446Z,28.48
2023-01-30T03:24:10.000Z,29.30
2023-01-30T03:29:06.645Z,28.80
2023-01-30T03:34:03.094Z,27.25
2023-01-30T03:38:59.555Z,27.55
2023-01-30T03:43:56.004Z,29.17
2023-01-30T03:48:52.440Z,28.52
2023-01-30T03:53:48.869Z,28.10
2023-01-30T03:58:45.369Z,26.40
2023-01-30T04:03:41.802Z,25.60
2023-01-30T04:08:38.235Z,24.95
2023-01-30T04:13:34.687Z,25.58
2023-01-30T04:18:31.109Z,24.08
2023-01-30T04:23:27.522Z,25.23
2023-01-30T04:28:23.953Z,19.92
2023-01-30T04:33:20.579Z,19.77
2023-01-30T04:38:17.030Z,20.50
2023-01-30T04:43:13.613Z,21.52
2023-01-30T04:48:10.176Z,21.27
2023-01-30T04:53:06.616Z,21.63
2023-01-30T04:58:03.273Z,22.80
2023-01-30T05:02:59.659Z,22.70
2023-01-30T05:07:56.093Z,22.55
2023-01-30T05:12:52.465Z,22.30
2023-01-30T05:17:48.885Z,24.23
2023-01-30T05:22:45.269Z,25.35
2023-01-30T05:27:42.028Z,24.38
2023-01-30T05:32:38.475Z,25.20
2023-01-30T05:37:34.901Z,24.20
2023-01-30T05:42:31.320Z,25.83
2023-01-30T05:47:27.749Z,26.60
2023-01-30T05:52:24.155Z,30.10
2023-01-30T05:57:20.524Z,31.83
2023-01-30T06:02:16.996Z,24.92
2023-01-30T06:07:14.379Z,29.48
2023-01-30T06:12:10.809Z,29.73
2023-01-30T06:17:07.339Z,29.08
2023-01-30T06:22:03.728Z,29.73
2023-01-30T06:27:00.140Z,28.25
2023-01-30T06:31:56.659Z,27.88
2023-01-30T06:36:53.045Z,27.73
2023-01-30T06:41:49.621Z,30.45
2023-01-30T06:46:46.048Z,30.10
2023-01-30T06:51:42.482Z,29.48
2023-01-30T06:56:38.924Z,29.00
2023-01-30T07:01:35.653Z,29.08
2023-01-30T07:06:32.252Z,28.25
2023-01-30T07:11:28.672Z,28.42
2023-01-30T07:16:29.171Z,29.13
2023-01-30T07:21:27.243Z,26.60
2023-01-30T07:26:24.752Z,23.45
2023-01-30T07:31:21.285Z,26.45
2023-01-30T07:36:17.687Z,20.98
2023-01-30T07:41:14.141Z,23.45
2023-01-30T07:46:10.578Z,19.05
2023-01-30T07:51:07.020Z,22.63
2023-01-30T07:56:10.361Z,20.77
2023-01-30T08:01:06.854Z,17.52
2023-01-30T08:06:03.320Z,18.55
2023-01-30T08:10:59.747Z,16.15
2023-01-30T08:16:00.118Z,17.95
2023-01-30T08:21:05.579Z,14.13
2023-01-30T08:26:04.111Z,15.18
2023-01-30T08:31:00.602Z,17.20
2023-01-30T08:35:57.466Z,12.98
2023-01-30T08:40:53.845Z,12.30
2023-01-30T08:45:53.551Z,13.63
2023-01-30T08:50:53.982Z,12.02
2023-01-30T08:55:53.743Z,13.45
2023-01-30T09:00:50.466Z,11.43
2023-01-30T09:05:47.112Z,12.38
2023-01-30T09:10:43.547Z,14.10
2023-01-30T09:15:44.279Z,11.25
2023-01-30T09:20:40.698Z,10.82
2023-01-30T09:25:37.645Z,11.52
2023-01-30T09:30:34.354Z,11.38
2023-01-30T09:35:30.792Z,9.75
2023-01-30T09:40:31.256Z,10.60
2023-01-30T09:46:00.165Z,10.82
2023-01-30T09:51:17.775Z,11.75
2023-01-30T09:56:14.242Z,10.75
2023-01-30T10:01:21.638Z,11.55
2023-01-30T10:06:18.104Z,13.38
2023-01-30T10:11:40.774Z,12.90
2023-01-30T10:16:40.029Z,17.23
2023-01-30T10:21:50.512Z,17.90
2023-01-30T10:26:47.711Z,17.15
2023-01-30T10:31:49.587Z,15.82
2023-01-30T10:36:57.137Z,16.63
2023-01-30T10:42:10.223Z,16.08
2023-01-30T10:47:46.588Z,16.23
2023-01-30T10:53:27.379Z,13.35
2023-01-30T10:58:38.137Z,17.48
2023-01-30T11:03:41.367Z,13.73
2023-01-30T11:08:37.816Z,15.70
2023-01-30T11:13:34.360Z,15.18
2023-01-30T11:23:48.056Z,14.57
2023-01-30T11:28:48.670Z,14.85
2023-01-30T11:33:45.872Z,15.18
2023-01-30T11:38:56.773Z,14.07
2023-01-30T11:44:03.326Z,16.23
2023-01-30T11:49:46.522Z,16.70
2023-01-30T11:54:29.727Z,15.75
2023-01-30T11:59:38.979Z,11.07
2023-01-30T12:04:35.571Z,12.93
2023-01-30T12:09:39.954Z,12.88
2023-01-30T12:14:44.410Z,10.70
2023-01-30T12:20:12.724Z,9.95
2023-01-30T12:25:41.352Z,15.02
2023-01-30T12:30:47.166Z,15.38
2023-01-30T12:35:56.752Z,15.98
2023-01-30T12:41:06.368Z,16.13
2023-01-30T12:46:07.202Z,16.98
2023-01-30T12:51:12.574Z,17.27
2023-01-30T12:56:42.255Z,17.05
2023-01-30T13:02:15.280Z,10.52
2023-01-30T13:07:33.093Z,14.03
2023-01-30T13:13:03.203Z,13.07
2023-01-30T13:18:16.093Z,15.63
2023-01-30T13:23:25.220Z,16.38
2023-01-30T13:28:28.878Z,12.45
2023-01-30T13:33:39.180Z,11.88
2023-01-30T13:38:40.678Z,11.57
2023-01-30T13:43:42.573Z,13.95
2023-01-30T13:49:03.800Z,16.95
2023-01-30T13:54:11.117Z,15.93
2023-01-30T13:59:34.128Z,17.40
2023-01-30T14:04:30.453Z,19.02
2023-01-30T14:09:29.986Z,21.67
2023-01-30T14:14:29.598Z,19.48
2023-01-30T14:19:40.480Z,16.23
2023-01-30T14:24:36.913Z,14.02
2023-01-30T14:29:54.178Z,16.25
2023-01-30T14:35:10.809Z,18.08
2023-01-30T14:40:37.857Z,17.02
2023-01-30T14:45:50.736Z,18.33
2023-01-30T14:50:47.922Z,14.48
2023-01-30T14:55:44.397Z,13.57
2023-01-30T15:00:40.926Z,14.32
2023-01-30T15:05:43.205Z,13.07
2023-01-30T15:11:05.331Z,12.65
2023-01-30T15:16:04.652Z,10.98
2023-01-30T15:21:23.812Z,10.88
2023-01-30T15:26:58.820Z,10.95
2023-01-30T15:31:59.151Z,11.07
2023-01-30T15:36:55.636Z,9.13
2023-01-30T15:41:56.969Z,12.05
2023-01-30T15:47:11.934Z,11.25
2023-01-30T15:52:14.538Z,10.15
2023-01-30T16:02:16.406Z,10.63
2023-01-30T16:07:22.867Z,11.48
2023-01-30T16:12:29.633Z,11.73
2023-01-30T16:17:29.897Z,11.18
2023-01-30T16:22:32.757Z,12.65
2023-01-30T16:27:35.179Z,12.80
2023-01-30T16:32:33.551Z,13.80
2023-01-30T16:37:31.737Z,15.35
2023-01-30T16:42:29.267Z,13.02
2023-01-30T16:47:28.245Z,15.35
2023-01-30T16:52:24.744Z,16.38
2023-01-30T16:57:35.786Z,12.18
2023-01-30T17:02:39.586Z,16.50
2023-01-30T17:07:37.956Z,13.60
2023-01-30T17:12:42.386Z,13.00
2023-01-30T17:17:42.053Z,13.27
2023-01-30T17:22:41.686Z,10.55
2023-01-30T17:27:38.181Z,10.13
2023-01-30T17:32:34.614Z,10.13
2023-01-30T17:37:31.066Z,11.88
2023-01-30T17:42:27.473Z,10.70
2023-01-30T17:47:23.873Z,12.38
2023-01-30T17:52:21.375Z,10.52
2023-01-30T17:57:17.827Z,10.68
2023-01-30T18:02:14.251Z,10.57
2023-01-30T18:07:14.104Z,9.73
2023-01-30T18:12:10.572Z,9.40
2023-01-30T18:17:07.071Z,7.47
2023-01-30T18:22:03.469Z,8.68
2023-01-30T18:27:01.815Z,10.30
2023-01-30T18:32:04.821Z,10.35
2023-01-30T18:37:01.196Z,9.75
2023-01-30T18:41:57.650Z,10.35
2023-01-30T18:46:54.049Z,11.45
2023-01-30T18:51:50.548Z,11.80
2023-01-30T18:56:46.980Z,11.27
2023-01-30T19:01:43.457Z,12.25
2023-01-30T19:06:43.223Z,11.18
2023-01-30T19:11:58.267Z,10.75
2023-01-30T19:16:54.699Z,10.50
2023-01-30T19:21:52.140Z,8.98
2023-01-30T19:26:48.796Z,9.35
2023-01-30T19:31:47.094Z,8.68
2023-01-30T19:36:43.761Z,8.70
2023-01-30T19:41:40.186Z,12.40
2023-01-30T19:46:36.673Z,10.57
2023-01-30T19:51:34.586Z,10.65
2023-01-30T19:56:31.836Z,11.30
2023-01-30T20:01:32.544Z,11.73
2023-01-30T20:06:31.639Z,12.02
2023-01-30T20:11:29.310Z,9.80
2023-01-30T20:16:27.541Z,12.77
2023-01-30T20:21:24.989Z,12.52
2023-01-30T20:26:23.586Z,9.82
2023-01-30T20:31:22.856Z,10.15
2023-01-30T20:36:20.209Z,11.05
2023-01-30T20:41:21.304Z,8.45
2023-01-30T20:46:20.611Z,9.93
2023-01-30T20:51:24.252Z,11.30
2023-01-30T20:56:21.921Z,8.18
2023-01-30T21:01:21.332Z,7.78
2023-01-30T21:06:41.886Z,7.80
2023-01-30T21:11:36.237Z,7.93
2023-01-30T21:16:34.010Z,9.45
2023-01-30T21:21:37.068Z,7.97
2023-01-30T21:26:35.947Z,7.45
2023-01-30T21:31:34.337Z,8.35
2023-01-30T21:36:30.917Z,9.98
2023-01-30T21:41:50.433Z,7.72
2023-01-30T21:46:48.173Z,8.93
2023-01-30T21:51:46.775Z,9.60
2023-01-30T21:56:43.720Z,9.48
2023-01-30T22:01:41.717Z,8.93
2023-01-30T22:06:38.977Z,9.30
2023-01-30T22:11:36.671Z,7.50
2023-01-30T22:16:33.846Z,7.05
2023-01-30T22:21:34.209Z,8.18
2023-01-30T22:26:31.097Z,7.78
2023-01-30T22:31:34.180Z,7.00
2023-01-30T22:36:33.719Z,6.00
2023-01-30T22:41:35.181Z,7.00
2023-01-30T22:46:34.302Z,6.55
2023-01-30T22:51:33.451Z,6.47
2023-01-30T22:56:35.914Z,6.68
2023-01-30T23:06:31.329Z,6.55
2023-01-30T23:11:36.939Z,7.78
2023-01-30T23:16:35.846Z,6.72
2023-01-30T23:21:37.960Z,8.77
2023-01-30T23:26:38.453Z,7.45
2023-01-30T23:31:36.646Z,8.55
2023-01-30T23:36:34.187Z,8.55
2023-01-30T23:41:32.540Z,6.85
2023-01-30T23:46:32.043Z,6.30
2023-01-30T23:51:30.746Z,7.47
2023-01-30T23:56:29.459Z,6.15
